createdAt,value
2022-08-22T00:00:12.022Z,97352.69
2022-08-22T00:01:40.182Z,97348.34
2022-08-22T00:02:42.143Z,97479.56
2022-08-22T00:02:44.176Z,97416.50
2022-08-22T00:02:53.533Z,97470.84
2022-08-22T00:02:56.789Z,97496.00
2022-08-22T00:03:06.867Z,97361.78
2022-08-22T00:03:15.561Z,97366.06
2022-08-22T00:03:16.136Z,97351.00
2022-08-22T00:04:36.578Z,97353.31
2022-08-22T00:06:06.826Z,97353.31
2022-08-22T00:07:57.065Z,97347.34
2022-08-22T00:09:11.908Z,97348.06
2022-08-22T00:10:32.986Z,97348.91
2022-08-22T00:11:52.472Z,97350.03
2022-08-22T00:13:05.662Z,97349.19
2022-08-22T00:14:35.190Z,97352.81
2022-08-22T00:15:44.550Z,97350.91
2022-08-22T00:17:10.349Z,97351.78
2022-08-22T00:18:43.059Z,97364.13
2022-08-22T00:19:57.673Z,97353.63
2022-08-22T00:21:14.973Z,97364.72
2022-08-22T00:22:25.676Z,97353.19
2022-08-22T00:23:35.512Z,97352.38
2022-08-22T00:24:48.835Z,97354.03
2022-08-22T00:26:06.364Z,97352.91
2022-08-22T00:27:23.905Z,97348.53
2022-08-22T00:28:35.420Z,97352.97
2022-08-22T00:29:46.156Z,97355.28
2022-08-22T00:31:16.654Z,97360.34
2022-08-22T00:32:47.046Z,97357.22
2022-08-22T00:34:14.242Z,97356.91
2022-08-22T00:35:42.937Z,97355.03
2022-08-22T00:36:53.658Z,97348.72
2022-08-22T00:38:11.074Z,97354.09
2022-08-22T00:39:21.529Z,97354.28
2022-08-22T00:40:54.815Z,97349.03
2022-08-22T00:42:29.093Z,97353.16
2022-08-22T00:44:00.122Z,97346.78
2022-08-22T00:45:14.711Z,97358.09
2022-08-22T00:46:36.334Z,97357.41
2022-08-22T00:47:50.291Z,97357.94
2022-08-22T00:48:52.871Z,97350.53
2022-08-22T00:50:33.704Z,97347.53
2022-08-22T00:52:08.771Z,97346.88
2022-08-22T00:53:44.988Z,97348.78
2022-08-22T00:55:12.601Z,97356.34
2022-08-22T00:56:27.970Z,97357.03
2022-08-22T00:58:08.044Z,97356.87
2022-08-22T00:59:38.078Z,97363.87
2022-08-22T01:01:07.046Z,97356.78
2022-08-22T01:02:13.328Z,97358.09
2022-08-22T01:03:39.048Z,97356.87
2022-08-22T01:05:19.437Z,97357.09
2022-08-22T01:06:27.925Z,97350.91
2022-08-22T01:08:08.488Z,97361.09
2022-08-22T01:09:33.367Z,97357.31
2022-08-22T01:10:51.149Z,97356.16
2022-08-22T01:11:53.948Z,97350.53
2022-08-22T01:13:12.840Z,97357.41
2022-08-22T01:14:35.207Z,97349.91
2022-08-22T01:15:39.915Z,97358.09
2022-08-22T01:16:55.068Z,97352.56
2022-08-22T01:18:19.572Z,97366.97
2022-08-22T01:20:00.660Z,97361.06
2022-08-22T01:21:34.191Z,97359.00
2022-08-22T01:22:54.852Z,97352.94
2022-08-22T01:24:22.138Z,97355.13
2022-08-22T01:25:45.846Z,97349.63
2022-08-22T01:27:05.450Z,97354.78
2022-08-22T01:28:11.911Z,97354.44
2022-08-22T01:29:57.823Z,97361.38
2022-08-22T01:31:12.839Z,97356.87
2022-08-22T01:32:42.358Z,97358.97
2022-08-22T01:33:45.056Z,97359.88
2022-08-22T01:35:00.342Z,97359.78
2022-08-22T01:36:21.361Z,97352.41
2022-08-22T01:37:33.193Z,97355.28
2022-08-22T01:38:55.314Z,97351.84
2022-08-22T01:40:04.133Z,97354.28
2022-08-22T01:41:25.527Z,97354.50
2022-08-22T01:42:34.894Z,97362.41
2022-08-22T01:44:13.258Z,97352.69
2022-08-22T01:45:46.771Z,97347.53
2022-08-22T01:46:54.968Z,97350.88
2022-08-22T01:48:17.285Z,97353.25
2022-08-22T01:49:35.232Z,97358.69
2022-08-22T01:50:45.228Z,97356.22
2022-08-22T01:52:00.060Z,97358.84
2022-08-22T01:53:09.553Z,97354.63
2022-08-22T01:54:36.307Z,97354.78
2022-08-22T01:55:45.037Z,97361.19
2022-08-22T01:56:48.360Z,97351.63
2022-08-22T01:58:05.339Z,97350.97
2022-08-22T01:59:17.805Z,97354.03
2022-08-22T02:00:35.503Z,97354.69
2022-08-22T02:01:41.433Z,97353.50
2022-08-22T02:02:50.500Z,97353.16
2022-08-22T02:03:58.887Z,97355.13
2022-08-22T02:05:24.815Z,97359.31
2022-08-22T02:06:43.018Z,97358.69
2022-08-22T02:07:57.162Z,97358.94
2022-08-22T02:09:11.224Z,97357.13
2022-08-22T02:10:43.366Z,97352.09
2022-08-22T02:12:00.477Z,97355.06
2022-08-22T02:13:13.717Z,97355.28
2022-08-22T02:14:43.537Z,97351.72
2022-08-22T02:15:50.806Z,97351.25
2022-08-22T02:17:16.237Z,97353.38
2022-08-22T02:18:30.215Z,97345.81
2022-08-22T02:19:47.322Z,97345.75
2022-08-22T02:20:59.671Z,97347.84
2022-08-22T02:22:18.326Z,97341.94
2022-08-22T02:23:29.773Z,97349.91
2022-08-22T02:24:47.729Z,97340.66
2022-08-22T02:25:56.761Z,97332.22
2022-08-22T02:27:05.332Z,97343.69
2022-08-22T02:28:14.731Z,97343.88
2022-08-22T02:29:29.655Z,97344.75
2022-08-22T02:30:55.307Z,97334.81
2022-08-22T02:32:08.781Z,97332.47
2022-08-22T02:33:26.773Z,97341.81
2022-08-22T02:34:53.819Z,97341.94
2022-08-22T02:36:15.400Z,97333.72
2022-08-22T02:37:34.385Z,97339.38
2022-08-22T02:38:48.367Z,97334.53
2022-08-22T02:40:17.068Z,97332.47
2022-08-22T02:42:01.274Z,97336.03
2022-08-22T02:43:21.887Z,97336.25
2022-08-22T02:44:33.814Z,97335.66
2022-08-22T02:45:53.128Z,97336.44
2022-08-22T02:47:12.310Z,97336.50
2022-08-22T02:49:20.115Z,97337.09
2022-08-22T02:50:55.304Z,97337.22
2022-08-22T02:52:08.600Z,97341.09
2022-08-22T02:53:31.177Z,97342.28
2022-08-22T02:54:47.851Z,97343.13
2022-08-22T02:56:14.937Z,97339.84
2022-08-22T02:57:27.106Z,97338.63
2022-08-22T02:58:48.074Z,97336.16
2022-08-22T03:00:32.088Z,97341.00
2022-08-22T03:01:40.800Z,97332.22
2022-08-22T03:02:44.665Z,97337.03
2022-08-22T03:03:48.628Z,97337.31
2022-08-22T03:04:54.558Z,97336.91
2022-08-22T03:06:01.089Z,97337.25
2022-08-22T03:07:08.017Z,97334.94
2022-08-22T03:10:18.601Z,97339.72
2022-08-22T03:11:32.425Z,97334.88
2022-08-22T03:12:51.944Z,97331.44
2022-08-22T03:14:16.625Z,97337.12
2022-08-22T03:15:23.381Z,97335.09
2022-08-22T03:16:28.797Z,97346.34
2022-08-22T03:17:57.545Z,97338.63
2022-08-22T03:19:18.403Z,97341.25
2022-08-22T03:20:47.051Z,97343.72
2022-08-22T03:22:08.520Z,97341.06
2022-08-22T03:23:20.683Z,97347.34
2022-08-22T03:24:39.855Z,97345.91
2022-08-22T03:26:07.492Z,97350.75
2022-08-22T03:27:39.840Z,97345.97
2022-08-22T03:28:59.602Z,97354.09
2022-08-22T03:30:18.174Z,97354.00
2022-08-22T03:31:25.363Z,97348.00
2022-08-22T03:32:55.257Z,97350.19
2022-08-22T03:34:22.562Z,97355.06
2022-08-22T03:35:51.714Z,97350.75
2022-08-22T03:37:06.032Z,97350.13
2022-08-22T03:38:24.046Z,97358.47
2022-08-22T03:40:06.202Z,97357.75
2022-08-22T03:41:31.919Z,97352.62
2022-08-22T03:42:58.421Z,97359.53
2022-08-22T03:44:06.829Z,97364.16
2022-08-22T03:45:28.448Z,97360.59
2022-08-22T03:46:56.026Z,97366.09
2022-08-22T03:48:24.876Z,97355.81
2022-08-22T03:49:54.077Z,97365.56
2022-08-22T03:51:13.831Z,97364.94
2022-08-22T03:52:30.822Z,97360.69
2022-08-22T03:53:58.547Z,97359.66
2022-08-22T03:55:19.702Z,97362.91
2022-08-22T03:56:25.357Z,97356.75
2022-08-22T03:57:59.215Z,97359.81
2022-08-22T03:59:28.621Z,97363.31
2022-08-22T04:01:04.380Z,97359.00
2022-08-22T04:02:42.507Z,97360.12
2022-08-22T04:04:05.695Z,97358.22
2022-08-22T04:05:34.667Z,97361.50
2022-08-22T04:06:56.618Z,97358.94
2022-08-22T04:08:05.414Z,97360.34
2022-08-22T04:09:26.722Z,97371.50
2022-08-22T04:11:09.438Z,97360.81
2022-08-22T04:12:15.617Z,97366.22
2022-08-22T04:13:30.357Z,97370.22
2022-08-22T04:15:25.625Z,97373.06
2022-08-22T04:16:59.214Z,97367.94
2022-08-22T04:18:07.964Z,97369.91
2022-08-22T04:19:28.948Z,97359.72
2022-08-22T04:20:56.852Z,97376.75
2022-08-22T04:22:07.652Z,97366.91
2022-08-22T04:23:25.231Z,97365.16
2022-08-22T04:24:52.377Z,97370.72
2022-08-22T04:26:12.824Z,97371.91
2022-08-22T04:27:33.014Z,97371.25
2022-08-22T04:28:43.972Z,97369.44
2022-08-22T04:29:54.864Z,97373.91
2022-08-22T04:31:03.605Z,97372.19
2022-08-22T04:32:25.576Z,97373.63
2022-08-22T04:33:41.111Z,97376.69
2022-08-22T04:35:00.285Z,97370.66
2022-08-22T04:36:26.865Z,97378.87
2022-08-22T04:37:56.691Z,97373.38
2022-08-22T04:39:25.273Z,97378.28
2022-08-22T04:40:43.645Z,97383.84
2022-08-22T04:42:00.729Z,97376.59
2022-08-22T04:43:24.757Z,97379.72
2022-08-22T04:44:36.789Z,97379.75
2022-08-22T04:45:51.690Z,97380.84
2022-08-22T04:47:17.349Z,97384.50
2022-08-22T04:48:28.350Z,97377.13
2022-08-22T04:49:55.134Z,97382.22
2022-08-22T04:51:03.939Z,97379.22
2022-08-22T04:52:22.036Z,97383.47
2022-08-22T04:53:39.700Z,97388.09
2022-08-22T04:54:47.930Z,97384.88
2022-08-22T04:56:07.963Z,97389.63
2022-08-22T04:57:27.637Z,97381.84
2022-08-22T04:58:46.507Z,97390.06
2022-08-22T04:59:51.176Z,97390.06
2022-08-22T05:01:09.073Z,97386.41
2022-08-22T05:02:21.527Z,97391.53
2022-08-22T05:03:29.020Z,97389.63
2022-08-22T05:04:36.728Z,97388.53
2022-08-22T05:05:41.800Z,97387.00
2022-08-22T05:06:50.236Z,97385.16
2022-08-22T05:07:58.238Z,97392.34
2022-08-22T05:09:07.891Z,97392.19
2022-08-22T05:10:18.680Z,97393.38
2022-08-22T05:11:24.701Z,97384.53
2022-08-22T05:12:41.623Z,97383.62
2022-08-22T05:13:51.500Z,97391.00
2022-08-22T05:15:00.573Z,97390.44
2022-08-22T05:16:10.292Z,97392.41
2022-08-22T05:17:18.966Z,97394.75
2022-08-22T05:18:31.083Z,97389.75
2022-08-22T05:19:40.120Z,97392.94
2022-08-22T05:20:47.364Z,97400.03
2022-08-22T05:21:52.660Z,97401.63
2022-08-22T05:23:05.893Z,97399.47
2022-08-22T05:24:14.668Z,97401.69
2022-08-22T05:25:27.163Z,97395.34
2022-08-22T05:26:39.278Z,97403.91
2022-08-22T05:27:48.717Z,97403.22
2022-08-22T05:29:00.399Z,97408.66
2022-08-22T05:30:11.902Z,97407.19
2022-08-22T05:31:23.975Z,97408.66
2022-08-22T05:32:32.779Z,97412.16
2022-08-22T05:33:49.167Z,97418.25
2022-08-22T05:34:58.797Z,97414.34
2022-08-22T05:36:12.301Z,97412.81
2022-08-22T05:37:23.259Z,97413.91
2022-08-22T05:38:36.798Z,97412.00
2022-08-22T05:39:47.321Z,97412.84
2022-08-22T05:40:59.394Z,97415.13
2022-08-22T05:42:03.799Z,97418.53
2022-08-22T05:43:11.825Z,97420.00
2022-08-22T05:44:25.431Z,97421.34
2022-08-22T05:45:29.048Z,97424.66
2022-08-22T05:46:35.058Z,97420.72
2022-08-22T05:47:47.115Z,97422.38
2022-08-22T05:49:03.382Z,97417.16
2022-08-22T05:50:25.213Z,97424.75
2022-08-22T05:51:42.927Z,97423.78
2022-08-22T05:52:59.430Z,97427.03
2022-08-22T05:54:14.608Z,97421.09
2022-08-22T05:55:32.744Z,97424.72
2022-08-22T05:56:42.155Z,97424.13
2022-08-22T05:57:49.672Z,97426.06
2022-08-22T05:58:53.126Z,97429.66
2022-08-22T06:00:23.148Z,97431.81
2022-08-22T06:01:28.950Z,97429.75
2022-08-22T06:02:56.298Z,97439.53
2022-08-22T06:04:20.320Z,97429.44
2022-08-22T06:05:31.569Z,97430.13
2022-08-22T06:06:43.469Z,97437.12
2022-08-22T06:07:50.538Z,97437.44
2022-08-22T06:09:03.044Z,97440.41
2022-08-22T06:10:32.105Z,97437.63
2022-08-22T06:11:52.023Z,97439.84
2022-08-22T06:13:11.463Z,97436.09
2022-08-22T06:14:24.755Z,97434.72
2022-08-22T06:15:41.809Z,97437.84
2022-08-22T06:17:13.548Z,97431.00
2022-08-22T06:18:21.273Z,97430.38
2022-08-22T06:19:25.849Z,97425.69
2022-08-22T06:20:45.536Z,97435.53
2022-08-22T06:21:52.240Z,97443.53
2022-08-22T06:22:59.660Z,97439.75
2022-08-22T06:24:05.395Z,97434.66
2022-08-22T06:25:18.773Z,97439.75
2022-08-22T06:26:24.031Z,97433.59
2022-08-22T06:27:31.380Z,97443.19
2022-08-22T06:28:54.709Z,97438.78
2022-08-22T06:30:03.043Z,97445.47
2022-08-22T06:31:15.868Z,97450.66
2022-08-22T06:32:30.767Z,97444.22
2022-08-22T06:33:46.077Z,97447.06
2022-08-22T06:34:51.995Z,97452.81
2022-08-22T06:36:30.330Z,97448.25
2022-08-22T06:37:39.180Z,97454.97
2022-08-22T06:39:03.553Z,97453.16
2022-08-22T06:40:10.928Z,97453.84
2022-08-22T06:41:13.907Z,97454.50
2022-08-22T06:42:19.607Z,97455.19
2022-08-22T06:43:25.631Z,97455.19
2022-08-22T06:44:37.165Z,97456.78
2022-08-22T06:45:41.265Z,97456.69
2022-08-22T06:46:45.851Z,97460.53
2022-08-22T06:48:12.081Z,97461.59
2022-08-22T06:49:15.593Z,97459.88
2022-08-22T06:50:20.049Z,97462.72
2022-08-22T06:51:26.228Z,97453.97
2022-08-22T06:52:33.269Z,97455.03
2022-08-22T06:53:51.006Z,97467.81
2022-08-22T06:55:02.717Z,97455.84
2022-08-22T06:56:06.950Z,97458.41
2022-08-22T06:57:33.289Z,97458.53
2022-08-22T06:58:43.512Z,97453.09
2022-08-22T06:59:46.569Z,97459.16
2022-08-22T07:01:05.741Z,97455.75
2022-08-22T07:02:36.934Z,97457.22
2022-08-22T07:03:47.718Z,97462.84
2022-08-22T07:04:51.809Z,97460.44
2022-08-22T07:05:57.337Z,97460.06
2022-08-22T07:07:02.728Z,97456.53
2022-08-22T07:08:18.838Z,97464.78
2022-08-22T07:09:27.522Z,97459.88
2022-08-22T07:10:30.295Z,97463.94
2022-08-22T07:11:39.191Z,97463.94
2022-08-22T07:12:48.542Z,97462.13
2022-08-22T07:13:59.714Z,97466.03
2022-08-22T07:15:19.247Z,97465.09
2022-08-22T07:16:31.917Z,97467.59
2022-08-22T07:17:40.504Z,97466.53
2022-08-22T07:18:49.362Z,97463.63
2022-08-22T07:20:03.818Z,97466.38
2022-08-22T07:21:09.280Z,97466.41
2022-08-22T07:22:26.535Z,97468.25
2022-08-22T07:23:45.345Z,97466.34
2022-08-22T07:24:54.306Z,97466.06
2022-08-22T07:26:21.214Z,97469.19
2022-08-22T07:27:53.131Z,97473.69
2022-08-22T07:29:14.438Z,97462.09
2022-08-22T07:30:27.446Z,97470.13
2022-08-22T07:31:49.032Z,97474.41
2022-08-22T07:32:57.731Z,97468.34
2022-08-22T07:34:53.675Z,97477.03
2022-08-22T07:36:01.772Z,97477.19
2022-08-22T07:37:15.703Z,97473.62
2022-08-22T07:38:47.135Z,97476.41
2022-08-22T07:40:08.709Z,97472.91
2022-08-22T07:41:15.808Z,97473.75
2022-08-22T07:42:28.544Z,97477.03
2022-08-22T07:43:40.442Z,97470.13
2022-08-22T07:45:16.519Z,97476.97
2022-08-22T07:46:19.171Z,97471.00
2022-08-22T07:47:28.107Z,97478.03
2022-08-22T07:48:53.626Z,97468.72
2022-08-22T07:50:07.601Z,97477.34
2022-08-22T07:51:15.172Z,97476.84
2022-08-22T07:52:22.921Z,97486.13
2022-08-22T07:53:42.467Z,97489.88
2022-08-22T07:55:03.430Z,97485.72
2022-08-22T07:56:10.080Z,97492.41
2022-08-22T07:57:25.016Z,97484.66
2022-08-22T07:58:31.091Z,97480.88
2022-08-22T07:59:37.631Z,97479.16
2022-08-22T08:00:49.136Z,97486.72
2022-08-22T08:01:53.988Z,97486.06
2022-08-22T08:03:01.817Z,97485.00
2022-08-22T08:04:09.684Z,97485.34
2022-08-22T08:05:14.519Z,97484.72
2022-08-22T08:06:17.410Z,97489.66
2022-08-22T08:07:24.891Z,97485.72
2022-08-22T08:08:45.873Z,97486.13
2022-08-22T08:09:54.479Z,97486.16
2022-08-22T08:10:59.444Z,97485.19
2022-08-22T08:12:06.060Z,97484.94
2022-08-22T08:13:25.479Z,97485.06
2022-08-22T08:14:29.512Z,97492.66
2022-08-22T08:15:35.208Z,97490.66
2022-08-22T08:16:54.568Z,97495.34
2022-08-22T08:18:04.066Z,97497.88
2022-08-22T08:19:08.922Z,97493.94
2022-08-22T08:20:17.519Z,97495.63
2022-08-22T08:21:29.065Z,97495.72
2022-08-22T08:22:33.043Z,97501.63
2022-08-22T08:23:45.369Z,97502.31
2022-08-22T08:24:58.855Z,97491.59
2022-08-22T08:26:18.500Z,97497.75
2022-08-22T08:27:50.117Z,97494.84
2022-08-22T08:28:58.385Z,97497.31
2022-08-22T08:30:15.377Z,97494.59
2022-08-22T08:31:27.629Z,97491.34
2022-08-22T08:32:34.590Z,97498.53
2022-08-22T08:33:42.089Z,97496.00
2022-08-22T08:34:45.042Z,97498.81
2022-08-22T08:36:02.824Z,97497.19
2022-08-22T08:37:33.570Z,97500.72
2022-08-22T08:38:51.480Z,97495.09
2022-08-22T08:39:58.659Z,97499.91
2022-08-22T08:41:29.390Z,97492.97
2022-08-22T08:43:27.733Z,97500.81
2022-08-22T08:45:18.268Z,97489.78
2022-08-22T08:46:36.191Z,97491.28
2022-08-22T08:48:15.333Z,97486.41
2022-08-22T08:49:38.765Z,97493.16
2022-08-22T08:50:45.596Z,97494.66
2022-08-22T08:52:16.118Z,97498.72
2022-08-22T08:53:27.922Z,97498.84
2022-08-22T08:54:55.968Z,97500.66
2022-08-22T08:56:05.237Z,97496.25
2022-08-22T08:57:45.457Z,97494.88
2022-08-22T08:58:53.787Z,97492.28
2022-08-22T09:00:03.788Z,97493.59
2022-08-22T09:01:18.676Z,97491.94
2022-08-22T09:02:48.275Z,97487.53
2022-08-22T09:04:19.817Z,97498.81
2022-08-22T09:05:47.393Z,97500.00
2022-08-22T09:07:15.565Z,97498.94
2022-08-22T09:08:24.920Z,97498.47
2022-08-22T09:10:01.928Z,97495.22
2022-08-22T09:11:46.605Z,97497.19
2022-08-22T09:13:28.464Z,97498.38
2022-08-22T09:15:14.148Z,97493.50
2022-08-22T09:16:29.821Z,97499.31
2022-08-22T09:17:34.955Z,97497.53
2022-08-22T09:19:02.052Z,97494.19
2022-08-22T09:20:23.273Z,97498.47
2022-08-22T09:22:14.265Z,97495.34
2022-08-22T09:23:35.920Z,97496.59
2022-08-22T09:24:44.581Z,97501.41
2022-08-22T09:26:16.045Z,97492.94
2022-08-22T09:27:45.871Z,97500.91
2022-08-22T09:29:01.524Z,97494.84
2022-08-22T09:30:11.781Z,97500.00
2022-08-22T09:31:47.460Z,97488.28
2022-08-22T09:33:12.781Z,97494.81
2022-08-22T09:34:35.651Z,97489.00
2022-08-22T09:35:51.221Z,97492.78
2022-08-22T09:37:19.684Z,97499.72
2022-08-22T09:38:26.336Z,97497.31
2022-08-22T09:39:38.343Z,97488.16
2022-08-22T09:40:50.356Z,97491.53
2022-08-22T09:42:08.069Z,97493.28
2022-08-22T09:43:21.040Z,97493.97
2022-08-22T09:44:39.737Z,97497.47
2022-08-22T09:46:12.017Z,97489.53
2022-08-22T09:47:24.644Z,97499.41
2022-08-22T09:48:50.438Z,97498.25
2022-08-22T09:50:14.009Z,97500.31
2022-08-22T09:52:14.485Z,97496.06
2022-08-22T09:53:47.151Z,97493.81
2022-08-22T09:54:59.055Z,97496.47
2022-08-22T09:56:33.979Z,97492.50
2022-08-22T09:57:48.620Z,97495.31
2022-08-22T09:59:05.355Z,97498.97
2022-08-22T10:00:22.429Z,97496.25
2022-08-22T10:01:32.771Z,97495.13
2022-08-22T10:02:50.216Z,97497.25
2022-08-22T10:04:04.646Z,97494.25
2022-08-22T10:05:35.281Z,97496.06
2022-08-22T10:06:50.978Z,97500.31
2022-08-22T10:08:31.976Z,97496.53
2022-08-22T10:10:02.163Z,97497.03
2022-08-22T10:11:44.690Z,97501.13
2022-08-22T10:12:59.680Z,97500.03
2022-08-22T10:14:10.224Z,97498.44
2022-08-22T10:15:46.931Z,97492.59
2022-08-22T10:17:10.785Z,97492.16
2022-08-22T10:18:53.736Z,97502.00
2022-08-22T10:20:32.813Z,97502.84
2022-08-22T10:21:47.859Z,97500.37
2022-08-22T10:23:07.412Z,97509.28
2022-08-22T10:24:36.550Z,97505.38
2022-08-22T10:26:22.970Z,97504.31
2022-08-22T10:27:42.547Z,97508.59
2022-08-22T10:29:11.202Z,97511.34
2022-08-22T10:30:27.681Z,97506.81
2022-08-22T10:32:01.378Z,97505.19
2022-08-22T10:33:23.155Z,97508.44
2022-08-22T10:34:36.182Z,97511.44
2022-08-22T10:36:04.825Z,97516.66
2022-08-22T10:37:23.800Z,97511.75
2022-08-22T10:38:43.962Z,97507.19
2022-08-22T10:39:58.189Z,97505.50
2022-08-22T10:41:09.832Z,97503.75
2022-08-22T10:42:42.261Z,97502.28
2022-08-22T10:44:15.911Z,97501.06
2022-08-22T10:45:23.653Z,97503.88
2022-08-22T10:46:42.055Z,97508.31
2022-08-22T10:48:08.052Z,97504.91
2022-08-22T10:49:28.222Z,97508.84
2022-08-22T10:50:36.820Z,97510.81
2022-08-22T10:52:15.346Z,97506.78
2022-08-22T10:53:59.352Z,97515.81
2022-08-22T10:55:29.325Z,97504.28
2022-08-22T10:56:53.088Z,97511.53
2022-08-22T10:58:09.653Z,97507.19
2022-08-22T10:59:40.705Z,97507.56
2022-08-22T11:00:54.869Z,97510.25
2022-08-22T11:02:36.482Z,97508.19
2022-08-22T11:04:05.700Z,97510.41
2022-08-22T11:05:30.794Z,97507.31
2022-08-22T11:06:46.535Z,97506.22
2022-08-22T11:08:11.430Z,97512.19
2022-08-22T11:09:56.325Z,97497.62
2022-08-22T11:11:32.850Z,97496.81
2022-08-22T11:12:43.875Z,97502.59
2022-08-22T11:14:03.096Z,97504.38
2022-08-22T11:15:40.997Z,97498.09
2022-08-22T11:16:57.778Z,97497.53
2022-08-22T11:18:24.013Z,97495.56
2022-08-22T11:19:47.028Z,97498.44
2022-08-22T11:21:07.129Z,97504.50
2022-08-22T11:22:18.850Z,97502.19
2022-08-22T11:23:24.413Z,97497.56
2022-08-22T11:24:55.795Z,97497.59
2022-08-22T11:26:33.761Z,97505.19
2022-08-22T11:28:31.221Z,97506.06
2022-08-22T11:29:59.343Z,97503.00
2022-08-22T11:31:36.625Z,97505.34
2022-08-22T11:33:33.853Z,97503.16
2022-08-22T11:36:30.906Z,97499.94
2022-08-22T11:38:05.348Z,97494.47
2022-08-22T11:39:25.349Z,97497.62
2022-08-22T11:40:38.727Z,97495.41
2022-08-22T11:41:52.154Z,97497.56
2022-08-22T11:43:18.391Z,97501.34
2022-08-22T11:44:25.624Z,97494.91
2022-08-22T11:45:38.086Z,97506.38
2022-08-22T11:46:50.479Z,97501.06
2022-08-22T11:48:02.980Z,97498.28
2022-08-22T11:49:28.164Z,97493.25
2022-08-22T11:50:45.995Z,97505.69
2022-08-22T11:51:59.532Z,97501.53
2022-08-22T11:53:26.375Z,97493.87
2022-08-22T11:55:00.076Z,97494.56
2022-08-22T11:56:21.646Z,97490.19
2022-08-22T11:57:38.160Z,97496.69
2022-08-22T11:59:16.508Z,97493.97
2022-08-22T12:00:23.354Z,97486.41
2022-08-22T12:01:36.932Z,97485.06
2022-08-22T12:02:49.617Z,97489.31
2022-08-22T12:03:59.704Z,97487.78
2022-08-22T12:05:20.202Z,97483.69
2022-08-22T12:06:49.721Z,97485.13
2022-08-22T12:08:04.166Z,97480.91
2022-08-22T12:09:25.949Z,97477.44
2022-08-22T12:10:36.360Z,97471.84
2022-08-22T12:12:05.387Z,97469.03
2022-08-22T12:13:20.293Z,97479.53
2022-08-22T12:14:54.721Z,97479.94
2022-08-22T12:16:36.727Z,97474.47
2022-08-22T12:17:55.714Z,97477.94
2022-08-22T12:19:10.113Z,97475.28
2022-08-22T12:20:19.839Z,97473.88
2022-08-22T12:21:38.501Z,97478.09
2022-08-22T12:23:01.295Z,97483.47
2022-08-22T12:24:25.674Z,97484.56
2022-08-22T12:25:52.508Z,97481.94
2022-08-22T12:27:08.264Z,97478.47
2022-08-22T12:28:46.337Z,97477.63
2022-08-22T12:30:02.787Z,97484.00
2022-08-22T12:31:16.122Z,97487.31
2022-08-22T12:32:36.874Z,97483.91
2022-08-22T12:33:53.240Z,97478.03
2022-08-22T12:35:32.554Z,97481.91
2022-08-22T12:36:58.729Z,97481.06
2022-08-22T12:38:31.251Z,97481.41
2022-08-22T12:39:53.233Z,97476.34
2022-08-22T12:41:28.229Z,97467.53
2022-08-22T12:43:15.417Z,97466.06
2022-08-22T12:45:10.404Z,97463.94
2022-08-22T12:46:47.311Z,97460.72
2022-08-22T12:48:27.528Z,97465.06
2022-08-22T12:49:30.446Z,97460.94
2022-08-22T12:50:38.617Z,97463.66
2022-08-22T12:52:18.613Z,97463.50
2022-08-22T12:53:43.412Z,97462.81
2022-08-22T12:55:32.740Z,97467.91
2022-08-22T12:56:50.345Z,97467.38
2022-08-22T12:58:26.575Z,97466.12
2022-08-22T12:59:36.276Z,97470.94
2022-08-22T13:00:45.445Z,97470.09
2022-08-22T13:01:52.960Z,97472.38
2022-08-22T13:02:56.265Z,97462.06
2022-08-22T13:04:03.112Z,97465.56
2022-08-22T13:05:19.689Z,97463.94
2022-08-22T13:06:43.091Z,97462.81
2022-08-22T13:08:31.786Z,97463.22
2022-08-22T13:09:39.124Z,97454.28
2022-08-22T13:10:47.148Z,97461.06
2022-08-22T13:11:55.850Z,97462.34
2022-08-22T13:13:03.964Z,97467.25
2022-08-22T13:14:25.915Z,97464.50
2022-08-22T13:15:33.547Z,97470.75
2022-08-22T13:16:48.832Z,97467.00
2022-08-22T13:17:55.917Z,97469.63
2022-08-22T13:19:07.764Z,97468.44
2022-08-22T13:20:26.784Z,97474.16
2022-08-22T13:21:34.567Z,97474.91
2022-08-22T13:22:45.494Z,97487.16
2022-08-22T13:23:54.277Z,97481.66
2022-08-22T13:25:08.695Z,97490.78
2022-08-22T13:26:26.982Z,97479.13
2022-08-22T13:27:51.351Z,97484.28
2022-08-22T13:29:25.876Z,97483.13
2022-08-22T13:30:37.705Z,97485.87
2022-08-22T13:31:45.913Z,97489.41
2022-08-22T13:32:56.912Z,97490.81
2022-08-22T13:34:09.896Z,97486.63
2022-08-22T13:35:30.919Z,97492.16
2022-08-22T13:36:51.719Z,97496.88
2022-08-22T13:38:12.507Z,97503.56
2022-08-22T13:39:15.198Z,97500.69
2022-08-22T13:40:29.501Z,97503.53
2022-08-22T13:41:44.366Z,97507.34
2022-08-22T13:42:54.228Z,97498.09
2022-08-22T13:44:10.138Z,97507.13
2022-08-22T13:45:21.898Z,97512.53
2022-08-22T13:46:35.539Z,97512.94
2022-08-22T13:47:51.299Z,97516.56
2022-08-22T13:49:00.720Z,97508.94
2022-08-22T13:50:17.148Z,97512.31
2022-08-22T13:51:55.479Z,97514.41
2022-08-22T13:53:21.558Z,97508.63
2022-08-22T13:55:12.572Z,97507.59
2022-08-22T13:56:24.692Z,97516.34
2022-08-22T13:57:36.861Z,97519.13
2022-08-22T13:58:51.548Z,97519.91
2022-08-22T14:00:10.883Z,97511.56
2022-08-22T14:01:31.306Z,97515.84
2022-08-22T14:02:46.270Z,97513.03
2022-08-22T14:03:57.810Z,97518.00
2022-08-22T14:05:03.944Z,97518.50
2022-08-22T14:06:37.403Z,97518.53
2022-08-22T14:07:56.856Z,97507.19
2022-08-22T14:09:31.389Z,97507.31
2022-08-22T14:10:41.910Z,97512.53
2022-08-22T14:11:54.305Z,97510.47
2022-08-22T14:12:57.081Z,97510.91
2022-08-22T14:14:06.464Z,97516.16
2022-08-22T14:15:15.998Z,97518.56
2022-08-22T14:16:30.882Z,97520.28
2022-08-22T14:17:40.713Z,97521.50
2022-08-22T14:18:55.125Z,97513.16
2022-08-22T14:20:32.426Z,97513.91
2022-08-22T14:21:46.131Z,97508.00
2022-08-22T14:23:06.446Z,97515.19
2022-08-22T14:24:25.725Z,97511.41
2022-08-22T14:25:41.004Z,97511.06
2022-08-22T14:26:57.969Z,97508.09
2022-08-22T14:28:06.328Z,97508.63
2022-08-22T14:29:16.172Z,97502.34
2022-08-22T14:30:24.541Z,97504.25
2022-08-22T14:31:29.094Z,97504.31
2022-08-22T14:32:43.307Z,97506.72
2022-08-22T14:33:54.822Z,97500.00
2022-08-22T14:35:21.595Z,97496.72
2022-08-22T14:36:53.769Z,97498.84
2022-08-22T14:38:27.439Z,97501.50
2022-08-22T14:39:50.241Z,97500.97
2022-08-22T14:41:19.787Z,97495.81
2022-08-22T14:42:27.911Z,97509.31
2022-08-22T14:43:30.616Z,97501.81
2022-08-22T14:44:42.476Z,97505.66
2022-08-22T14:45:54.436Z,97511.50
2022-08-22T14:47:15.863Z,97505.19
2022-08-22T14:48:39.328Z,97512.47
2022-08-22T14:49:55.764Z,97502.97
2022-08-22T14:51:06.356Z,97504.03
2022-08-22T14:52:25.858Z,97506.25
2022-08-22T14:53:39.091Z,97507.75
2022-08-22T14:54:45.005Z,97506.75
2022-08-22T14:56:02.868Z,97514.16
2022-08-22T14:57:20.483Z,97507.38
2022-08-22T14:58:26.468Z,97512.97
2022-08-22T14:59:50.328Z,97524.09
2022-08-22T15:00:56.527Z,97521.19
2022-08-22T15:02:06.469Z,97514.88
2022-08-22T15:03:29.665Z,97507.66
2022-08-22T15:04:38.249Z,97522.81
2022-08-22T15:05:45.838Z,97512.72
2022-08-22T15:06:57.813Z,97518.53
2022-08-22T15:08:01.818Z,97515.44
2022-08-22T15:09:31.172Z,97519.00
2022-08-22T15:10:34.484Z,97521.47
2022-08-22T15:11:42.042Z,97521.44
2022-08-22T15:12:57.902Z,97521.69
2022-08-22T15:14:16.186Z,97522.81
2022-08-22T15:15:52.891Z,97516.00
2022-08-22T15:17:02.730Z,97515.69
2022-08-22T15:18:17.823Z,97518.25
2022-08-22T15:19:35.916Z,97512.12